Time;durP1;ratioP1;P1;durP2;ratioP2;P2;SDS_P1;SDS_P2;PMS_P1;PMS_P2;Temp;Humidity;BMP_temperature;BMP_pressure;BME280_temperature;BME280_humidity;BME280_pressure;Samples;Min_cycle;Max_cycle;Signal;HPM_P1;HPM_P2
2023/12/26 00:01:16;;;;;;;0.90;0.80;;;;;11.70;99897.00;;;;5044047;28;20781;-70
2023/12/26 00:04:02;;;;;;;1.00;0.90;;;;;11.70;99894.00;;;;5040743;28;20291;-72
2023/12/26 00:06:49;;;;;;;0.90;0.90;;;;;11.60;99909.00;;;;5038690;28;20363;-71
2023/12/26 00:09:39;;;;;;;1.00;1.00;;;;;11.60;99908.00;;;;5045470;28;20733;-69
2023/12/26 00:12:27;;;;;;;1.03;1.03;;;;;11.60;99897.00;;;;5044993;28;20720;-70
2023/12/26 00:15:13;;;;;;;1.30;1.20;;;;;11.60;99910.00;;;;5045852;28;20224;-71
2023/12/26 00:18:00;;;;;;;1.90;1.20;;;;;11.60;99902.00;;;;5048084;28;20231;-72
2023/12/26 00:20:46;;;;;;;1.87;1.20;;;;;11.60;99888.00;;;;5043157;28;20237;-70
2023/12/26 00:23:34;;;;;;;1.73;1.30;;;;;11.60;99917.00;;;;5043997;28;20240;-71
2023/12/26 00:26:20;;;;;;;2.70;1.00;;;;;11.60;99902.00;;;;5042806;28;20232;-70
2023/12/26 00:29:09;;;;;;;1.37;1.00;;;;;11.60;99884.00;;;;5038601;28;20224;-69
2023/12/26 00:31:55;;;;;;;1.23;1.13;;;;;11.60;99897.00;;;;5039135;28;20287;-70
2023/12/26 00:34:42;;;;;;;1.53;1.20;;;;;11.60;99913.00;;;;5045186;28;20224;-71
2023/12/26 00:37:29;;;;;;;1.37;1.10;;;;;11.50;99913.00;;;;5045857;28;20232;-70
2023/12/26 00:40:15;;;;;;;1.50;1.40;;;;;11.60;99907.00;;;;5045103;28;20605;-71
2023/12/26 00:43:02;;;;;;;1.30;1.17;;;;;11.50;99909.00;;;;5035846;28;20296;-72
2023/12/26 00:45:50;;;;;;;1.30;1.20;;;;;11.60;99904.00;;;;5044707;28;20733;-70
2023/12/26 00:48:37;;;;;;;1.00;1.00;;;;;11.50;99909.00;;;;5037395;28;20265;-70
2023/12/26 00:51:25;;;;;;;1.30;1.20;;;;;11.50;99905.00;;;;5042218;28;21093;-71
2023/12/26 00:54:12;;;;;;;1.30;1.20;;;;;11.60;99908.00;;;;5038886;28;20228;-70
2023/12/26 00:56:58;;;;;;;1.27;1.17;;;;;11.50;99902.00;;;;5044881;28;20674;-70
2023/12/26 00:59:45;;;;;;;1.30;1.20;;;;;11.50;99928.00;;;;5038979;28;20881;-68
2023/12/26 01:02:33;;;;;;;1.20;1.10;;;;;11.40;99905.00;;;;5040580;28;20237;-71
2023/12/26 01:05:19;;;;;;;1.20;1.10;;;;;11.50;99920.00;;;;5045209;28;20229;-69
2023/12/26 01:08:08;;;;;;;1.30;1.20;;;;;11.40;99918.00;;;;5039608;28;20741;-70
2023/12/26 01:10:55;;;;;;;1.10;1.00;;;;;11.50;99935.00;;;;5036205;28;20232;-70
2023/12/26 01:13:41;;;;;;;1.27;1.17;;;;;11.40;99916.00;;;;5042804;28;20271;-70
2023/12/26 01:16:28;;;;;;;0.97;0.97;;;;;11.50;99928.00;;;;5039624;28;20296;-71
2023/12/26 01:19:16;;;;;;;1.40;1.23;;;;;11.40;99916.00;;;;5045218;28;20380;-71
2023/12/26 01:22:04;;;;;;;1.20;0.93;;;;;11.40;99932.00;;;;5037967;28;20955;-70
2023/12/26 01:24:51;;;;;;;1.20;1.10;;;;;11.40;99933.00;;;;5044228;28;20233;-70
2023/12/26 01:27:37;;;;;;;1.00;1.00;;;;;11.40;99930.00;;;;5043838;28;20256;-70
2023/12/26 01:30:24;;;;;;;1.00;1.00;;;;;11.40;99929.00;;;;5041736;28;20229;-71
2023/12/26 01:33:11;;;;;;;1.30;1.20;;;;;11.30;99935.00;;;;5039282;28;20719;-70
2023/12/26 01:35:59;;;;;;;1.20;1.10;;;;;11.40;99910.00;;;;5042257;28;20223;-71
2023/12/26 01:38:45;;;;;;;1.10;1.10;;;;;11.30;99922.00;;;;5045207;28;20829;-68
2023/12/26 01:41:32;;;;;;;1.20;1.10;;;;;11.30;99935.00;;;;5045588;28;20236;-70
2023/12/26 01:44:18;;;;;;;2.10;1.20;;;;;11.30;99944.00;;;;5044473;28;20228;-70
2023/12/26 01:47:07;;;;;;;1.20;1.10;;;;;11.30;99951.00;;;;5043358;28;20754;-70
2023/12/26 01:49:54;;;;;;;0.73;0.73;;;;;11.30;99943.00;;;;5043183;28;20225;-70
2023/12/26 01:52:42;;;;;;;1.07;1.00;;;;;11.20;99950.00;;;;5043027;28;20240;-69
2023/12/26 01:55:29;;;;;;;1.20;1.10;;;;;11.30;99961.00;;;;5044243;28;20224;-70
2023/12/26 01:58:16;;;;;;;2.43;1.20;;;;;11.20;99956.00;;;;5041737;28;20375;-69
2023/12/26 02:01:03;;;;;;;1.03;0.90;;;;;11.20;99972.00;;;;5042376;28;20280;-71
2023/12/26 02:03:49;;;;;;;0.80;0.80;;;;;11.20;99981.00;;;;5043921;28;20863;-68
2023/12/26 02:06:38;;;;;;;2.93;1.20;;;;;11.20;99975.00;;;;5044992;28;20241;-71
2023/12/26 02:09:26;;;;;;;4.10;1.10;;;;;11.20;99974.00;;;;5038429;28;20229;-70
2023/12/26 02:12:12;;;;;;;1.10;1.10;;;;;11.20;99956.00;;;;5042547;28;20233;-67
2023/12/26 02:14:59;;;;;;;1.20;1.10;;;;;11.20;99959.00;;;;5037457;28;20357;-69
2023/12/26 02:17:46;;;;;;;0.93;0.93;;;;;11.10;99967.00;;;;5036474;28;20677;-70
2023/12/26 02:20:33;;;;;;;0.80;0.80;;;;;11.20;99968.00;;;;5036147;28;20236;-70
2023/12/26 02:23:20;;;;;;;0.97;0.97;;;;;11.20;99970.00;;;;5027929;28;20260;-72
2023/12/26 02:26:09;;;;;;;1.10;1.00;;;;;11.20;99969.00;;;;5037656;28;20291;-68
2023/12/26 02:28:57;;;;;;;1.30;1.20;;;;;11.10;99969.00;;;;5043882;28;20738;-71
2023/12/26 02:31:45;;;;;;;0.90;0.90;;;;;11.20;99966.00;;;;5042731;28;20233;-70
2023/12/26 02:34:32;;;;;;;1.33;1.10;;;;;11.20;99991.00;;;;5039892;28;20598;-69
2023/12/26 02:37:19;;;;;;;1.13;1.03;;;;;11.20;99976.00;;;;5042676;28;20780;-69
2023/12/26 02:40:07;;;;;;;0.90;0.90;;;;;11.20;99984.00;;;;5040829;28;20228;-70
2023/12/26 02:42:55;;;;;;;1.30;1.20;;;;;11.20;99975.00;;;;5041583;28;20239;-70
2023/12/26 02:45:42;;;;;;;1.20;1.10;;;;;11.20;99959.00;;;;5042725;28;20243;-70
2023/12/26 02:48:28;;;;;;;1.00;1.00;;;;;11.20;99977.00;;;;5038575;28;20231;-69
2023/12/26 02:51:15;;;;;;;0.90;0.90;;;;;11.20;99991.00;;;;5039462;28;20356;-70
2023/12/26 02:54:02;;;;;;;0.90;0.90;;;;;11.20;99984.00;;;;5040486;28;20232;-71
2023/12/26 02:56:48;;;;;;;1.20;0.90;;;;;11.10;99969.00;;;;5043063;28;20328;-70
2023/12/26 02:59:36;;;;;;;1.13;0.83;;;;;11.20;99966.00;;;;5041927;28;20240;-71
2023/12/26 03:02:22;;;;;;;1.00;0.97;;;;;11.20;99976.00;;;;5039410;28;20228;-69
2023/12/26 03:05:09;;;;;;;0.80;0.80;;;;;11.20;99983.00;;;;5037206;28;20232;-69
2023/12/26 03:07:55;;;;;;;1.10;1.10;;;;;11.20;99982.00;;;;5042481;28;20240;-71
2023/12/26 03:10:42;;;;;;;1.03;0.93;;;;;11.20;99974.00;;;;5048529;28;20289;-70
2023/12/26 03:13:28;;;;;;;1.17;1.10;;;;;11.10;99969.00;;;;5042623;28;20693;-69
2023/12/26 03:16:16;;;;;;;1.50;1.33;;;;;11.10;99992.00;;;;5050358;28;20604;-67
2023/12/26 03:19:02;;;;;;;2.77;1.00;;;;;11.10;99984.00;;;;5043388;28;20233;-71
2023/12/26 03:21:49;;;;;;;1.00;1.00;;;;;11.10;99986.00;;;;5043426;28;20613;-66
2023/12/26 03:24:36;;;;;;;0.77;0.77;;;;;11.20;99976.00;;;;5040015;28;20441;-67
2023/12/26 03:27:22;;;;;;;0.80;0.80;;;;;11.10;99985.00;;;;5045702;28;20328;-69
2023/12/26 03:30:09;;;;;;;0.93;0.93;;;;;11.20;99990.00;;;;5043102;28;20873;-69
2023/12/26 03:32:57;;;;;;;1.07;1.07;;;;;11.20;99981.00;;;;5041260;28;20249;-68
2023/12/26 03:35:44;;;;;;;2.90;1.27;;;;;11.20;99986.00;;;;5033205;28;20224;-69
2023/12/26 03:38:31;;;;;;;2.60;1.13;;;;;11.20;99975.00;;;;5047204;28;20233;-70
2023/12/26 03:41:17;;;;;;;1.23;1.20;;;;;11.20;99987.00;;;;5028699;28;20233;-70
2023/12/26 03:44:04;;;;;;;1.50;1.00;;;;;11.30;100005.00;;;;5037478;28;20240;-71
2023/12/26 03:46:51;;;;;;;1.30;1.20;;;;;11.20;99994.00;;;;5041592;28;20322;-70
2023/12/26 03:49:39;;;;;;;2.47;1.40;;;;;11.20;99993.00;;;;5043360;28;20259;-70
2023/12/26 03:52:26;;;;;;;1.50;1.40;;;;;11.10;99999.00;;;;5034480;28;20376;-69
2023/12/26 03:55:13;;;;;;;1.60;1.40;;;;;11.20;100005.00;;;;5047144;28;20923;-70
2023/12/26 03:57:59;;;;;;;1.70;1.57;;;;;11.20;100024.00;;;;5038597;28;20674;-71
2023/12/26 04:00:46;;;;;;;1.30;1.20;;;;;11.20;100032.00;;;;5046808;28;20732;-70
2023/12/26 04:03:33;;;;;;;1.40;1.30;;;;;11.10;100064.00;;;;5041286;28;20432;-72
2023/12/26 04:06:21;;;;;;;1.80;1.50;;;;;11.10;100066.00;;;;5045077;28;20233;-69
2023/12/26 04:09:08;;;;;;;2.03;1.30;;;;;11.10;100062.00;;;;5039889;28;20233;-68
2023/12/26 04:11:55;;;;;;;1.23;1.10;;;;;11.10;100070.00;;;;5041424;28;20244;-71
2023/12/26 04:14:41;;;;;;;1.80;1.20;;;;;11.10;100078.00;;;;5042421;28;20229;-69
2023/12/26 04:17:27;;;;;;;0.90;0.90;;;;;11.00;100057.00;;;;5041866;28;20291;-70
2023/12/26 04:20:14;;;;;;;0.83;0.83;;;;;11.00;100069.00;;;;5046984;28;20228;-70
2023/12/26 04:23:02;;;;;;;0.70;0.70;;;;;10.90;100074.00;;;;5044270;28;20244;-70
2023/12/26 04:25:48;;;;;;;0.80;0.80;;;;;10.90;100063.00;;;;5044155;28;20236;-71
2023/12/26 04:28:35;;;;;;;0.80;0.80;;;;;10.90;100083.00;;;;5038457;28;20232;-69
2023/12/26 04:31:21;;;;;;;1.10;1.00;;;;;10.90;100078.00;;;;5039354;28;20229;-71
2023/12/26 04:34:08;;;;;;;0.90;0.90;;;;;10.90;100074.00;;;;5035458;28;20241;-71
2023/12/26 04:36:55;;;;;;;0.90;0.90;;;;;10.90;100074.00;;;;5037817;28;20236;-69
2023/12/26 04:39:43;;;;;;;1.00;1.00;;;;;10.90;100084.00;;;;5042455;28;20771;-70
2023/12/26 04:42:30;;;;;;;0.63;0.63;;;;;10.90;100090.00;;;;5038536;28;20228;-70
2023/12/26 04:45:16;;;;;;;0.90;0.90;;;;;10.90;100080.00;;;;5042182;28;20795;-71
2023/12/26 04:48:04;;;;;;;1.80;1.10;;;;;10.90;100097.00;;;;5040169;28;20821;-71
2023/12/26 04:50:51;;;;;;;0.80;0.80;;;;;10.90;100102.00;;;;5043131;28;20248;-70
2023/12/26 04:53:37;;;;;;;0.83;0.83;;;;;10.90;100106.00;;;;5041063;28;20356;-70
2023/12/26 04:56:26;;;;;;;2.30;0.90;;;;;10.90;100103.00;;;;5040618;28;20713;-71
2023/12/26 04:59:13;;;;;;;0.97;0.97;;;;;10.90;100114.00;;;;5042982;28;20366;-71
2023/12/26 05:01:59;;;;;;;4.03;1.40;;;;;10.90;100113.00;;;;5040011;28;20237;-70
2023/12/26 05:04:46;;;;;;;3.67;1.10;;;;;10.90;100114.00;;;;5043197;28;20240;-68
2023/12/26 05:07:32;;;;;;;2.80;1.30;;;;;11.00;100136.00;;;;5042376;28;20415;-72
2023/12/26 05:10:19;;;;;;;1.27;1.13;;;;;10.90;100129.00;;;;5041942;28;20235;-70
2023/12/26 05:13:07;;;;;;;1.23;1.17;;;;;10.90;100139.00;;;;5043262;28;20868;-69
2023/12/26 05:15:53;;;;;;;1.40;1.30;;;;;10.90;100149.00;;;;5042769;28;20694;-71
2023/12/26 05:18:39;;;;;;;1.10;1.07;;;;;11.00;100155.00;;;;5041723;28;20240;-71
2023/12/26 05:21:26;;;;;;;1.33;1.23;;;;;11.00;100169.00;;;;5038728;28;20868;-69
2023/12/26 05:24:12;;;;;;;1.73;1.30;;;;;10.90;100163.00;;;;5044294;28;20340;-70
2023/12/26 05:26:59;;;;;;;4.20;1.73;;;;;10.70;100181.00;;;;5040652;28;20236;-70
2023/12/26 05:29:47;;;;;;;1.37;1.23;;;;;10.80;100171.00;;;;5040885;28;20350;-70
2023/12/26 05:32:33;;;;;;;3.23;1.40;;;;;10.70;100168.00;;;;5036064;28;20248;-70
2023/12/26 05:35:22;;;;;;;2.70;1.60;;;;;10.70;100173.00;;;;5037503;28;20232;-71
2023/12/26 05:38:09;;;;;;;6.63;1.53;;;;;10.70;100173.00;;;;5044694;28;20241;-70
2023/12/26 05:40:55;;;;;;;5.70;1.50;;;;;10.70;100183.00;;;;5045169;28;20240;-72
2023/12/26 05:43:42;;;;;;;5.07;1.93;;;;;10.70;100190.00;;;;5039286;28;20237;-70
2023/12/26 05:46:30;;;;;;;1.67;1.50;;;;;10.70;100184.00;;;;5041958;28;20225;-70
2023/12/26 05:49:16;;;;;;;1.73;1.50;;;;;10.70;100200.00;;;;5034578;28;20329;-70
2023/12/26 05:52:04;;;;;;;4.87;1.50;;;;;10.70;100209.00;;;;5047597;28;20239;-68
2023/12/26 05:54:50;;;;;;;1.90;1.57;;;;;10.60;100202.00;;;;5041601;28;20227;-71
2023/12/26 05:57:37;;;;;;;2.13;1.63;;;;;10.70;100217.00;;;;5039012;28;20232;-72
2023/12/26 06:00:23;;;;;;;2.70;1.60;;;;;10.60;100212.00;;;;5040065;28;20220;-70
2023/12/26 06:03:10;;;;;;;2.43;1.23;;;;;10.60;100223.00;;;;5043682;28;20259;-70
2023/12/26 06:05:57;;;;;;;1.47;1.30;;;;;10.60;100226.00;;;;5043235;28;20276;-70
2023/12/26 06:08:44;;;;;;;2.40;1.20;;;;;10.50;100221.00;;;;5043447;28;20255;-72
2023/12/26 06:11:30;;;;;;;6.10;1.30;;;;;10.40;100235.00;;;;5037772;28;20236;-70
2023/12/26 06:14:16;;;;;;;3.20;1.77;;;;;10.40;100254.00;;;;5043659;28;21029;-70
2023/12/26 06:17:03;;;;;;;3.87;2.03;;;;;10.30;100254.00;;;;5046204;28;20244;-70
2023/12/26 06:19:52;;;;;;;2.60;1.43;;;;;10.30;100266.00;;;;5044240;28;20341;-70
2023/12/26 06:22:38;;;;;;;1.30;1.20;;;;;10.30;100269.00;;;;5042529;28;20593;-71
2023/12/26 06:25:25;;;;;;;4.30;1.40;;;;;10.20;100282.00;;;;5043734;28;20236;-70
2023/12/26 06:28:12;;;;;;;2.03;1.40;;;;;10.20;100284.00;;;;5041716;28;20245;-70
2023/12/26 06:30:58;;;;;;;2.67;1.40;;;;;10.10;100287.00;;;;5040618;28;20275;-69
2023/12/26 06:33:45;;;;;;;1.33;1.20;;;;;10.20;100281.00;;;;5041015;28;20721;-70
2023/12/26 06:36:33;;;;;;;6.77;1.40;;;;;10.10;100294.00;;;;5043995;28;20271;-70
2023/12/26 06:39:19;;;;;;;5.47;1.50;;;;;10.10;100306.00;;;;5044217;28;20725;-70
2023/12/26 06:42:05;;;;;;;5.57;1.47;;;;;10.10;100312.00;;;;5033109;28;20227;-69
2023/12/26 06:44:52;;;;;;;1.87;1.20;;;;;10.10;100304.00;;;;5043796;28;20244;-71
2023/12/26 06:47:40;;;;;;;4.20;1.40;;;;;10.00;100322.00;;;;5042879;28;20236;-70
2023/12/26 06:50:26;;;;;;;1.50;1.40;;;;;9.90;100335.00;;;;5033872;28;20308;-69
2023/12/26 06:53:14;;;;;;;1.03;1.00;;;;;10.00;100335.00;;;;5035840;28;25049;-70
2023/12/26 06:56:00;;;;;;;1.73;1.23;;;;;9.90;100342.00;;;;5040245;28;20266;-71
2023/12/26 06:58:47;;;;;;;1.27;1.17;;;;;9.90;100353.00;;;;5041180;28;20232;-71
2023/12/26 07:01:33;;;;;;;1.30;1.20;;;;;9.80;100358.00;;;;5043098;28;20336;-72
2023/12/26 07:04:20;;;;;;;5.60;1.57;;;;;9.80;100373.00;;;;5045113;28;20241;-70
2023/12/26 07:07:07;;;;;;;9.93;1.40;;;;;9.80;100372.00;;;;5041644;28;20330;-72
2023/12/26 07:09:55;;;;;;;2.43;1.30;;;;;9.80;100383.00;;;;5042795;28;20295;-71
2023/12/26 07:12:41;;;;;;;1.73;1.07;;;;;9.80;100375.00;;;;5035182;28;20252;-73
2023/12/26 07:15:28;;;;;;;1.87;1.07;;;;;9.90;100385.00;;;;5037269;28;20231;-73
2023/12/26 07:18:15;;;;;;;3.87;1.60;;;;;9.80;100387.00;;;;5031629;28;20596;-71
2023/12/26 07:21:01;;;;;;;2.77;1.43;;;;;9.80;100393.00;;;;5034942;28;20718;-71
2023/12/26 07:23:48;;;;;;;1.97;1.23;;;;;9.80;100401.00;;;;5035737;28;20237;-71
2023/12/26 07:26:36;;;;;;;3.97;1.50;;;;;9.80;100401.00;;;;5030256;28;21054;-73
2023/12/26 07:29:23;;;;;;;2.43;1.17;;;;;9.70;100407.00;;;;5033889;28;20237;-70
2023/12/26 07:32:10;;;;;;;1.13;0.90;;;;;9.70;100421.00;;;;5036843;28;20731;-72
2023/12/26 07:34:56;;;;;;;2.00;1.07;;;;;9.70;100427.00;;;;5029311;28;20323;-71
2023/12/26 07:37:43;;;;;;;5.27;1.43;;;;;9.80;100429.00;;;;5032900;28;20241;-70
2023/12/26 07:40:30;;;;;;;5.17;1.20;;;;;9.80;100439.00;;;;5034839;28;20240;-70
2023/12/26 07:43:18;;;;;;;1.80;1.00;;;;;9.70;100444.00;;;;5032308;28;20589;-71
2023/12/26 07:46:06;;;;;;;3.23;1.00;;;;;9.70;100440.00;;;;5027489;28;20303;-70
2023/12/26 07:48:52;;;;;;;4.37;1.67;;;;;9.80;100441.00;;;;5033367;28;20229;-70
2023/12/26 07:51:39;;;;;;;4.73;1.10;;;;;9.80;100442.00;;;;5031559;28;20235;-72
2023/12/26 07:54:25;;;;;;;4.57;1.23;;;;;9.70;100449.00;;;;5030545;28;20250;-69
2023/12/26 07:57:11;;;;;;;1.93;1.00;;;;;9.60;100446.00;;;;5028082;28;20225;-69
2023/12/26 07:59:59;;;;;;;1.90;1.03;;;;;9.60;100474.00;;;;5029859;28;20241;-70
2023/12/26 08:02:46;;;;;;;1.17;0.80;;;;;9.60;100482.00;;;;5043383;28;20713;-70
2023/12/26 08:05:32;;;;;;;2.93;0.93;;;;;9.50;100484.00;;;;5040962;28;20233;-66
2023/12/26 08:08:18;;;;;;;1.33;1.03;;;;;9.50;100498.00;;;;5040286;28;20611;-66
2023/12/26 08:11:05;;;;;;;3.13;1.03;;;;;9.50;100494.00;;;;5044816;28;20248;-70
2023/12/26 08:13:52;;;;;;;3.63;1.13;;;;;9.50;100496.00;;;;5038090;28;20315;-72
2023/12/26 08:16:40;;;;;;;1.97;0.90;;;;;9.40;100501.00;;;;5045673;28;20240;-69
2023/12/26 08:19:27;;;;;;;4.77;1.23;;;;;9.40;100503.00;;;;5042773;28;20233;-71
2023/12/26 08:22:13;;;;;;;2.63;1.07;;;;;9.30;100513.00;;;;5045650;28;20260;-71
2023/12/26 08:25:00;;;;;;;1.57;1.00;;;;;9.30;100510.00;;;;5042234;28;20252;-71
2023/12/26 08:27:46;;;;;;;3.37;1.00;;;;;9.40;100509.00;;;;5045778;28;20236;-69
2023/12/26 08:30:33;;;;;;;6.00;1.17;;;;;9.40;100503.00;;;;5039449;28;20245;-70
2023/12/26 08:33:26;;;;;;;2.67;1.20;;;;;9.40;100515.00;;;;5041091;28;20319;-69
2023/12/26 08:36:13;;;;;;;1.40;1.27;;;;;9.30;100522.00;;;;5043407;28;24617;-70
2023/12/26 08:39:00;;;;;;;0.83;0.83;;;;;9.30;100525.00;;;;5041762;28;20294;-71
2023/12/26 08:41:46;;;;;;;6.63;1.47;;;;;9.20;100547.00;;;;5040835;28;20237;-70
2023/12/26 08:44:32;;;;;;;1.63;0.97;;;;;9.30;100540.00;;;;5041707;28;20232;-69
2023/12/26 08:47:19;;;;;;;1.13;1.03;;;;;9.30;100546.00;;;;5046429;28;20236;-70
2023/12/26 08:50:08;;;;;;;5.93;1.60;;;;;9.20;100562.00;;;;5043313;28;20294;-69
2023/12/26 08:52:55;;;;;;;3.53;0.80;;;;;9.20;100565.00;;;;5039450;28;20788;-70
2023/12/26 08:55:45;;;;;;;1.70;0.90;;;;;9.20;100560.00;;;;5039504;28;20244;-69
2023/12/26 08:58:32;;;;;;;1.20;1.03;;;;;9.20;100566.00;;;;5045355;28;20307;-70
2023/12/26 09:01:19;;;;;;;2.73;1.20;;;;;9.30;100562.00;;;;5038643;28;20225;-70
2023/12/26 09:04:06;;;;;;;2.87;1.60;;;;;9.30;100574.00;;;;5045639;28;20264;-69
2023/12/26 09:06:53;;;;;;;7.23;1.43;;;;;9.30;100582.00;;;;5040186;28;20295;-71
2023/12/26 09:09:40;;;;;;;3.17;0.97;;;;;9.30;100598.00;;;;5044840;28;20252;-70
2023/12/26 09:12:26;;;;;;;2.13;1.00;;;;;9.40;100602.00;;;;5044268;28;20596;-70
2023/12/26 09:15:13;;;;;;;6.27;1.03;;;;;9.40;100602.00;;;;5039044;28;20377;-69
2023/12/26 09:17:59;;;;;;;8.03;1.10;;;;;9.30;100611.00;;;;5043497;28;20275;-71
2023/12/26 09:20:46;;;;;;;6.47;1.20;;;;;9.40;100622.00;;;;5043785;28;20724;-72
2023/12/26 09:23:34;;;;;;;4.93;1.13;;;;;9.50;100617.00;;;;5044539;28;20757;-71
2023/12/26 09:26:21;;;;;;;5.70;1.40;;;;;9.60;100616.00;;;;5045183;28;20313;-71
2023/12/26 09:29:08;;;;;;;3.17;1.53;;;;;9.70;100630.00;;;;5045733;28;20295;-72
2023/12/26 09:31:55;;;;;;;2.07;1.10;;;;;9.80;100625.00;;;;5041980;28;20355;-69
2023/12/26 09:34:41;;;;;;;1.67;1.07;;;;;9.80;100643.00;;;;5044491;28;20765;-69
2023/12/26 09:37:28;;;;;;;5.97;1.90;;;;;9.80;100646.00;;;;5043081;28;20271;-71
2023/12/26 09:40:15;;;;;;;0.80;0.80;;;;;9.90;100650.00;;;;5044866;28;20291;-69
2023/12/26 09:43:05;;;;;;;1.10;1.00;;;;;9.90;100658.00;;;;5042481;28;20232;-71
2023/12/26 09:45:51;;;;;;;5.07;1.50;;;;;9.90;100665.00;;;;5037924;28;20244;-70
2023/12/26 09:48:38;;;;;;;2.70;0.90;;;;;9.80;100672.00;;;;5036344;28;20225;-70
2023/12/26 09:51:25;;;;;;;3.03;1.30;;;;;9.90;100674.00;;;;5039051;28;20306;-69
2023/12/26 09:54:13;;;;;;;5.67;1.07;;;;;9.90;100679.00;;;;5045433;28;20228;-72
2023/12/26 09:57:01;;;;;;;3.90;1.10;;;;;9.90;100676.00;;;;5039238;28;20228;-69
2023/12/26 09:59:48;;;;;;;6.27;1.23;;;;;10.00;100674.00;;;;5042313;28;20244;-69
2023/12/26 10:02:35;;;;;;;5.20;1.70;;;;;9.90;100680.00;;;;5043600;28;20228;-70
2023/12/26 10:05:24;;;;;;;3.97;1.30;;;;;9.90;100681.00;;;;5044365;28;20597;-69
2023/12/26 10:08:11;;;;;;;5.20;1.40;;;;;9.90;100679.00;;;;5044344;28;20248;-70
2023/12/26 10:10:57;;;;;;;4.37;1.37;;;;;9.90;100693.00;;;;5040825;28;20233;-69
2023/12/26 10:13:50;;;;;;;1.80;1.10;;;;;9.90;100698.00;;;;5043468;28;20225;-70
2023/12/26 10:16:36;;;;;;;14.67;1.67;;;;;9.90;100696.00;;;;5041118;28;20307;-69
2023/12/26 10:19:22;;;;;;;9.00;1.40;;;;;9.90;100680.00;;;;5041846;28;20228;-70
2023/12/26 10:22:09;;;;;;;6.10;1.37;;;;;9.90;100705.00;;;;5043711;28;20278;-71
2023/12/26 10:24:56;;;;;;;3.00;1.20;;;;;9.90;100711.00;;;;5037253;28;20928;-68
2023/12/26 10:27:54;;;;;;;2.87;1.10;;;;;10.00;100700.00;;;;5038837;28;20244;-69
2023/12/26 10:30:41;;;;;;;3.40;1.43;;;;;10.10;100708.00;;;;5040860;28;20324;-71
2023/12/26 10:33:28;;;;;;;2.37;1.20;;;;;10.10;100713.00;;;;5033533;28;20232;-69
2023/12/26 10:36:15;;;;;;;7.27;1.77;;;;;10.10;100726.00;;;;5044318;28;20248;-69
2023/12/26 10:39:02;;;;;;;8.00;1.47;;;;;10.10;100739.00;;;;5037282;28;20229;-71
2023/12/26 10:41:49;;;;;;;4.67;1.40;;;;;10.20;100718.00;;;;5038194;28;20228;-70
2023/12/26 10:44:57;;;;;;;5.23;1.70;;;;;10.30;100728.00;;;;5043100;28;20232;-69
2023/12/26 10:47:48;;;;;;;2.07;1.50;;;;;10.30;100717.00;;;;5038889;28;20249;-70
2023/12/26 10:50:37;;;;;;;1.30;1.10;;;;;10.40;100731.00;;;;5044665;28;20228;-68
2023/12/26 10:53:28;;;;;;;2.23;1.30;;;;;10.50;100745.00;;;;5038693;28;20605;-69
2023/12/26 10:56:15;;;;;;;3.90;1.30;;;;;10.50;100741.00;;;;5036952;28;20389;-69
2023/12/26 10:59:02;;;;;;;4.93;1.40;;;;;10.60;100747.00;;;;5037407;28;20223;-69
2023/12/26 13:52:32;;;;;;;6.93;3.07;;;;;10.80;100923.00;;;;5038742;28;20774;-68
2023/12/26 13:55:56;;;;;;;7.33;1.80;;;;;10.80;100926.00;;;;5034487;28;20312;-67
2023/12/26 13:59:38;;;;;;;3.60;1.77;;;;;10.70;100934.00;;;;5036081;28;20294;-68
2023/12/26 14:03:02;;;;;;;9.20;2.53;;;;;10.60;100936.00;;;;5036571;28;20228;-68
2023/12/26 14:06:26;;;;;;;4.20;1.30;;;;;10.60;100945.00;;;;5040034;28;20236;-70
2023/12/26 14:09:50;;;;;;;4.10;1.83;;;;;10.50;100952.00;;;;5043705;28;20229;-69
2023/12/26 14:13:14;;;;;;;4.80;1.50;;;;;10.50;100946.00;;;;5036079;28;20224;-70
2023/12/26 14:16:38;;;;;;;5.40;2.93;;;;;10.50;100958.00;;;;5036726;28;20315;-68
2023/12/26 14:20:02;;;;;;;4.37;1.50;;;;;10.50;100957.00;;;;5035618;28;20240;-73
2023/12/26 14:23:27;;;;;;;3.17;1.40;;;;;10.50;100960.00;;;;5031061;28;20232;-67
2023/12/26 14:26:52;;;;;;;10.13;5.67;;;;;10.50;100962.00;;;;5037588;28;20343;-68
2023/12/26 14:30:15;;;;;;;9.60;3.50;;;;;10.50;100956.00;;;;5040921;28;20240;-67
2023/12/26 14:33:39;;;;;;;11.77;3.33;;;;;10.50;100966.00;;;;5039788;28;20228;-68
2023/12/26 14:37:04;;;;;;;4.60;1.73;;;;;10.50;100971.00;;;;5033738;28;20226;-71
2023/12/26 14:40:27;;;;;;;6.47;2.20;;;;;10.50;100982.00;;;;5035454;28;20233;-69
2023/12/26 14:43:15;;;;;;;5.33;2.10;;;;;10.40;100990.00;;;;5036352;28;20303;-69
2023/12/26 14:46:02;;;;;;;41.97;14.70;;;;;10.40;101006.00;;;;5040094;28;20724;-71
2023/12/26 14:48:49;;;;;;;9.17;3.03;;;;;10.30;101002.00;;;;5036596;28;20794;-69
2023/12/26 14:51:35;;;;;;;10.17;1.77;;;;;10.20;101018.00;;;;5032708;28;20279;-69
2023/12/26 14:54:22;;;;;;;19.00;5.27;;;;;10.10;101014.00;;;;5036591;28;20243;-72
2023/12/26 14:57:09;;;;;;;32.23;9.97;;;;;10.10;101022.00;;;;5039610;28;20235;-68
2023/12/26 14:59:57;;;;;;;5.47;2.23;;;;;10.10;101025.00;;;;5036049;28;20816;-71
2023/12/26 15:02:46;;;;;;;3.43;1.47;;;;;10.10;101024.00;;;;5034504;28;20310;-69
2023/12/26 15:05:34;;;;;;;7.73;2.60;;;;;10.00;101045.00;;;;5017971;28;20232;-68
2023/12/26 15:08:21;;;;;;;7.17;2.50;;;;;10.00;101040.00;;;;5037493;28;20275;-68
2023/12/26 15:11:14;;;;;;;21.63;7.90;;;;;10.00;101044.00;;;;5039455;28;20252;-69
2023/12/26 15:14:00;;;;;;;5.07;2.23;;;;;10.00;101055.00;;;;5034890;28;20228;-70
2023/12/26 15:17:09;;;;;;;3.70;1.70;;;;;10.00;101053.00;;;;5033597;28;20310;-70
2023/12/26 15:19:55;;;;;;;2.87;1.73;;;;;10.00;101057.00;;;;5036638;28;20233;-70
2023/12/26 15:22:42;;;;;;;6.03;1.90;;;;;10.00;101071.00;;;;5041300;28;20230;-70
2023/12/26 15:25:28;;;;;;;4.73;1.53;;;;;10.00;101083.00;;;;5041238;28;20232;-69
2023/12/26 15:28:15;;;;;;;7.70;3.50;;;;;9.90;101082.00;;;;5039664;28;20231;-69
2023/12/26 15:31:02;;;;;;;1.90;1.27;;;;;10.00;101078.00;;;;5038456;28;20219;-69
2023/12/26 15:33:50;;;;;;;4.57;1.37;;;;;9.90;101089.00;;;;5040969;28;20229;-70
2023/12/26 15:36:37;;;;;;;7.97;2.10;;;;;9.90;101093.00;;;;5033523;28;20733;-70
2023/12/26 15:39:23;;;;;;;5.40;1.80;;;;;10.00;101110.00;;;;5035362;28;20400;-71
2023/12/26 15:42:10;;;;;;;3.33;1.43;;;;;9.90;101104.00;;;;5041782;28;20248;-71
2023/12/26 15:44:56;;;;;;;4.80;1.60;;;;;9.90;101113.00;;;;5040938;28;20233;-71
2023/12/26 15:47:43;;;;;;;7.17;1.50;;;;;9.90;101116.00;;;;5041126;28;20229;-71
2023/12/26 15:50:31;;;;;;;16.60;6.27;;;;;9.90;101131.00;;;;5033043;28;20303;-72
2023/12/26 15:53:21;;;;;;;7.17;2.23;;;;;9.90;101133.00;;;;5037583;28;20236;-69
2023/12/26 15:56:07;;;;;;;4.70;1.90;;;;;9.90;101130.00;;;;5041318;28;20245;-67
2023/12/26 15:58:57;;;;;;;9.27;3.27;;;;;9.90;101132.00;;;;5044231;28;20239;-71
2023/12/26 16:01:47;;;;;;;8.03;3.63;;;;;9.90;101136.00;;;;5041472;28;20224;-69
2023/12/26 16:04:34;;;;;;;9.90;1.87;;;;;9.90;101137.00;;;;5041545;28;20228;-68
2023/12/26 16:07:21;;;;;;;3.03;1.37;;;;;9.90;101138.00;;;;5041150;28;20233;-67
2023/12/26 16:10:09;;;;;;;8.03;1.70;;;;;9.90;101140.00;;;;5044674;28;20232;-69
2023/12/26 16:12:56;;;;;;;1.63;1.53;;;;;9.90;101142.00;;;;5041347;28;20302;-68
2023/12/26 16:15:42;;;;;;;8.00;1.87;;;;;9.90;101139.00;;;;5041321;28;20224;-70
2023/12/26 16:18:29;;;;;;;5.77;1.53;;;;;9.90;101144.00;;;;5038808;28;20236;-69
2023/12/26 16:21:16;;;;;;;3.13;1.30;;;;;9.90;101152.00;;;;5045358;28;20741;-69
2023/12/26 16:24:04;;;;;;;1.33;1.23;;;;;9.90;101152.00;;;;5044121;28;20224;-69
2023/12/26 16:26:51;;;;;;;2.40;1.40;;;;;9.90;101150.00;;;;5041869;28;20233;-68
2023/12/26 16:29:37;;;;;;;2.30;1.30;;;;;9.80;101156.00;;;;5040368;28;20282;-69
2023/12/26 16:32:24;;;;;;;4.07;1.83;;;;;9.90;101154.00;;;;5044656;28;20256;-68
2023/12/26 16:35:11;;;;;;;1.13;1.03;;;;;9.90;101169.00;;;;5042918;28;20602;-69
2023/12/26 16:37:57;;;;;;;2.23;1.60;;;;;9.90;101168.00;;;;5041603;28;20230;-70
2023/12/26 16:40:45;;;;;;;2.93;1.40;;;;;9.90;101167.00;;;;5037574;28;20232;-68
2023/12/26 16:43:31;;;;;;;1.10;1.00;;;;;9.90;101174.00;;;;5041151;28;20633;-69
2023/12/26 16:46:18;;;;;;;4.13;1.37;;;;;9.90;101180.00;;;;5042441;28;20860;-69
2023/12/26 16:49:05;;;;;;;5.27;1.63;;;;;9.90;101179.00;;;;5038975;28;20340;-70
2023/12/26 16:51:54;;;;;;;5.63;1.63;;;;;9.90;101198.00;;;;5041802;28;20245;-70